createdAt,value
2023-07-25T00:01:16.571Z,6.80
2023-07-25T00:03:44.417Z,4.50
2023-07-25T00:06:12.147Z,7.00
2023-07-25T00:08:40.046Z,8.50
2023-07-25T00:11:14.772Z,4.60
2023-07-25T00:13:42.585Z,4.10
2023-07-25T00:16:10.362Z,6.60
2023-07-25T00:18:38.184Z,4.50
2023-07-25T00:21:05.864Z,4.80
2023-07-25T00:23:33.617Z,7.00
2023-07-25T00:26:01.377Z,6.60
2023-07-25T00:28:29.132Z,7.40
2023-07-25T00:30:56.852Z,5.90
2023-07-25T00:33:24.646Z,7.90
2023-07-25T00:35:53.786Z,7.50
2023-07-25T00:38:21.536Z,7.60
2023-07-25T00:40:49.256Z,6.70
2023-07-25T00:43:17.369Z,4.00
2023-07-25T00:45:45.248Z,5.90
2023-07-25T00:48:14.111Z,4.90
2023-07-25T00:50:41.913Z,4.30
2023-07-25T00:53:10.902Z,4.00
2023-07-25T00:55:39.585Z,7.50
2023-07-25T00:58:07.413Z,6.50
2023-07-25T01:00:39.410Z,6.70
2023-07-25T01:03:07.958Z,5.50
2023-07-25T01:05:46.351Z,4.60
2023-07-25T01:08:14.142Z,6.00
2023-07-25T01:10:41.883Z,4.10
2023-07-25T01:13:09.613Z,4.40
2023-07-25T01:15:37.517Z,5.30
2023-07-25T01:18:07.417Z,6.40
2023-07-25T01:20:36.886Z,7.20
2023-07-25T01:23:07.277Z,4.10
2023-07-25T01:25:36.521Z,5.10
2023-07-25T01:28:04.545Z,8.30
2023-07-25T01:30:32.510Z,6.10
2023-07-25T01:33:00.467Z,8.30
2023-07-25T01:35:28.522Z,13.60
2023-07-25T01:37:56.308Z,7.30
2023-07-25T01:40:24.158Z,6.80
2023-07-25T01:42:52.219Z,8.70
2023-07-25T01:45:20.134Z,6.30
2023-07-25T01:47:47.940Z,6.70
2023-07-25T01:50:16.722Z,6.60
2023-07-25T01:52:44.677Z,7.20
2023-07-25T01:55:12.557Z,7.10
2023-07-25T01:57:40.256Z,8.40
2023-07-25T02:00:08.861Z,7.50
2023-07-25T02:02:40.903Z,7.10
2023-07-25T02:05:08.994Z,7.00
2023-07-25T02:07:38.424Z,9.40
2023-07-25T02:10:06.879Z,6.20
2023-07-25T02:12:34.636Z,7.40
2023-07-25T02:15:02.462Z,8.00
2023-07-25T02:17:30.205Z,5.90
2023-07-25T02:19:57.920Z,4.50
2023-07-25T02:22:25.608Z,7.50
2023-07-25T02:24:53.611Z,6.20
2023-07-25T02:27:21.394Z,7.40
2023-07-25T02:29:49.314Z,7.00
2023-07-25T02:32:17.009Z,7.00
2023-07-25T02:34:44.691Z,5.70
2023-07-25T02:37:12.456Z,6.00
2023-07-25T02:39:44.030Z,6.70
2023-07-25T02:42:11.791Z,8.20
2023-07-25T02:44:39.569Z,8.40
2023-07-25T02:47:07.945Z,5.70
2023-07-25T02:49:36.976Z,7.10
2023-07-25T02:52:05.341Z,10.70
2023-07-25T02:54:33.055Z,6.50
2023-07-25T02:57:00.781Z,6.50
2023-07-25T02:59:30.820Z,7.30
2023-07-25T03:01:58.883Z,6.50
2023-07-25T03:04:26.720Z,7.70
2023-07-25T03:06:54.483Z,7.10
2023-07-25T03:09:22.264Z,7.70
2023-07-25T03:11:50.122Z,6.90
2023-07-25T03:14:18.102Z,5.90
2023-07-25T03:16:45.894Z,4.70
2023-07-25T03:19:13.726Z,8.20
2023-07-25T03:21:41.522Z,7.90
2023-07-25T03:24:09.211Z,7.60
2023-07-25T03:26:37.561Z,5.90
2023-07-25T03:29:05.598Z,5.20
2023-07-25T03:31:34.038Z,6.30
2023-07-25T03:34:02.233Z,5.80
2023-07-25T03:36:30.253Z,5.40
2023-07-25T03:38:58.036Z,7.80
2023-07-25T03:41:25.993Z,6.00
2023-07-25T03:43:53.720Z,7.10
2023-07-25T03:46:21.488Z,7.00
2023-07-25T03:48:49.320Z,9.40
2023-07-25T03:51:17.111Z,12.00
2023-07-25T03:53:44.834Z,7.10
2023-07-25T03:56:12.586Z,7.40
2023-07-25T03:58:40.336Z,7.10
2023-07-25T04:01:08.073Z,6.90
2023-07-25T04:03:35.900Z,8.80
2023-07-25T04:06:03.936Z,8.50
2023-07-25T04:08:31.856Z,9.20
2023-07-25T04:10:59.560Z,7.10
2023-07-25T04:13:27.337Z,6.20
2023-07-25T04:15:55.133Z,7.50
2023-07-25T04:18:23.141Z,5.80
2023-07-25T04:20:50.903Z,8.90
2023-07-25T04:23:23.009Z,6.20
2023-07-25T04:28:19.219Z,5.20
2023-07-25T04:30:46.952Z,6.90
2023-07-25T04:33:14.675Z,8.00
2023-07-25T04:35:46.261Z,5.00
2023-07-25T04:38:15.564Z,5.60
2023-07-25T04:40:44.978Z,6.50
2023-07-25T04:43:12.927Z,7.10
2023-07-25T04:45:40.935Z,5.80
2023-07-25T04:48:08.893Z,7.20
2023-07-25T04:50:36.887Z,5.80
2023-07-25T04:53:05.881Z,7.00
2023-07-25T04:55:33.592Z,6.20
2023-07-25T04:58:01.314Z,7.70
2023-07-25T05:00:30.824Z,5.20
2023-07-25T05:02:58.898Z,7.00
2023-07-25T05:05:26.881Z,7.40
2023-07-25T05:07:54.591Z,5.10
2023-07-25T05:10:22.423Z,5.00
2023-07-25T05:12:50.214Z,4.90
2023-07-25T05:15:18.165Z,5.80
2023-07-25T05:17:45.910Z,4.80
2023-07-25T05:20:14.370Z,6.10
2023-07-25T05:22:42.084Z,6.80
2023-07-25T05:25:10.126Z,8.00
2023-07-25T05:27:37.877Z,8.00
2023-07-25T05:30:07.107Z,7.00
2023-07-25T05:32:38.017Z,7.70
2023-07-25T05:35:06.708Z,6.90
2023-07-25T05:37:37.378Z,6.10
2023-07-25T05:40:06.998Z,5.70
2023-07-25T05:42:34.996Z,7.50
2023-07-25T05:45:02.929Z,9.90
2023-07-25T05:47:30.927Z,7.60
2023-07-25T05:49:58.828Z,8.50
2023-07-25T05:52:26.675Z,8.10
2023-07-25T05:54:54.801Z,9.10
2023-07-25T05:57:22.646Z,10.20
2023-07-25T05:59:50.379Z,8.50
2023-07-25T06:02:18.142Z,7.30
2023-07-25T06:04:47.396Z,8.60
2023-07-25T06:07:16.707Z,8.10
2023-07-25T06:09:44.501Z,7.00
2023-07-25T06:12:12.475Z,8.40
2023-07-25T06:14:40.349Z,11.60
2023-07-25T06:17:08.201Z,9.20
2023-07-25T06:19:36.034Z,7.00
2023-07-25T06:22:03.876Z,8.70
2023-07-25T06:24:41.488Z,5.80
2023-07-25T06:27:11.499Z,9.30
2023-07-25T06:29:39.303Z,6.80
2023-07-25T06:32:07.701Z,6.50
2023-07-25T06:34:35.833Z,5.40
2023-07-25T06:37:03.778Z,7.20
2023-07-25T06:39:31.634Z,4.80
2023-07-25T06:41:59.343Z,9.00
2023-07-25T06:44:29.045Z,6.10
2023-07-25T06:46:56.836Z,6.40
2023-07-25T06:49:24.599Z,4.70
2023-07-25T06:51:52.340Z,7.10
2023-07-25T06:54:20.072Z,5.90
2023-07-25T06:56:47.876Z,4.70
2023-07-25T06:59:15.666Z,5.40
2023-07-25T07:01:43.456Z,6.10
2023-07-25T07:04:11.417Z,6.40
2023-07-25T07:06:39.381Z,4.80
2023-07-25T07:09:07.089Z,5.30
2023-07-25T07:11:34.912Z,4.90
2023-07-25T07:14:02.706Z,4.20
2023-07-25T07:16:30.486Z,6.40
2023-07-25T07:18:58.303Z,6.20
2023-07-25T07:21:26.173Z,5.20
2023-07-25T07:23:54.153Z,3.20
2023-07-25T07:26:21.959Z,4.60
2023-07-25T07:28:50.727Z,6.30
2023-07-25T07:31:24.437Z,3.90
2023-07-25T07:33:53.429Z,3.60
2023-07-25T07:36:21.186Z,3.40
2023-07-25T07:38:48.916Z,2.40
2023-07-25T07:41:16.661Z,3.50
2023-07-25T07:43:44.392Z,5.60
2023-07-25T07:46:12.127Z,2.90
2023-07-25T07:48:42.024Z,3.50
2023-07-25T07:51:10.040Z,8.50
2023-07-25T07:53:39.622Z,3.40
2023-07-25T07:56:08.645Z,6.10
2023-07-25T07:58:36.483Z,4.10
2023-07-25T08:01:04.869Z,3.90
2023-07-25T08:03:32.818Z,3.20
2023-07-25T08:06:00.608Z,3.40
2023-07-25T08:08:28.444Z,4.60
2023-07-25T08:10:56.180Z,5.10
2023-07-25T08:13:24.033Z,4.90
2023-07-25T08:15:51.779Z,3.10
2023-07-25T08:18:19.984Z,3.90
2023-07-25T08:20:47.939Z,3.70
2023-07-25T08:23:15.707Z,3.00
2023-07-25T08:25:44.966Z,3.10
2023-07-25T08:28:12.796Z,3.50
2023-07-25T08:30:40.526Z,3.70
2023-07-25T08:33:08.456Z,5.50
2023-07-25T08:35:36.965Z,3.80
2023-07-25T08:38:04.741Z,2.70
2023-07-25T08:40:32.643Z,3.20
2023-07-25T08:43:10.202Z,4.50
2023-07-25T08:45:38.178Z,3.70
2023-07-25T08:48:13.528Z,5.70
2023-07-25T08:50:46.985Z,3.20
2023-07-25T08:53:16.566Z,3.90
2023-07-25T08:55:45.426Z,6.30
2023-07-25T08:58:15.584Z,3.00
2023-07-25T09:00:44.341Z,3.80
2023-07-25T09:03:12.884Z,3.20
2023-07-25T09:05:41.086Z,4.30
2023-07-25T09:08:08.823Z,2.40
2023-07-25T09:10:37.130Z,5.10
2023-07-25T09:13:04.836Z,2.70
2023-07-25T09:15:32.709Z,3.00
2023-07-25T09:18:00.470Z,3.20
2023-07-25T09:20:28.359Z,3.00
2023-07-25T09:22:58.759Z,4.60
2023-07-25T09:25:27.258Z,4.20
2023-07-25T09:27:55.839Z,5.50
2023-07-25T09:30:29.146Z,3.10
2023-07-25T09:32:57.067Z,3.30
2023-07-25T09:35:26.416Z,2.40
2023-07-25T09:37:56.174Z,6.00
2023-07-25T09:40:24.144Z,4.00
2023-07-25T09:42:52.626Z,3.70
2023-07-25T09:45:20.954Z,3.50
2023-07-25T09:47:52.978Z,3.60
2023-07-25T09:50:27.395Z,4.70
2023-07-25T09:52:55.210Z,2.90
2023-07-25T09:55:23.121Z,4.00
2023-07-25T09:57:52.867Z,3.20
2023-07-25T10:00:20.807Z,4.30
2023-07-25T10:02:50.038Z,3.20
2023-07-25T10:05:18.408Z,4.00
2023-07-25T10:07:48.807Z,4.70
2023-07-25T10:10:20.351Z,3.50
2023-07-25T10:12:48.162Z,3.40
2023-07-25T10:15:15.966Z,4.90
2023-07-25T10:17:45.483Z,4.70
2023-07-25T10:20:32.136Z,3.70
2023-07-25T10:23:12.505Z,3.10
2023-07-25T10:25:40.611Z,4.60
2023-07-25T10:28:09.084Z,4.20
2023-07-25T10:30:46.460Z,3.50
2023-07-25T10:33:15.938Z,3.30
2023-07-25T10:35:50.927Z,4.00
2023-07-25T10:38:34.263Z,4.20
2023-07-25T10:41:17.664Z,4.40
2023-07-25T10:43:56.371Z,3.70
2023-07-25T10:46:29.698Z,3.00
2023-07-25T10:49:01.234Z,4.50
2023-07-25T10:51:50.159Z,4.40
2023-07-25T10:54:20.920Z,3.10
2023-07-25T10:57:10.460Z,4.50
2023-07-25T10:59:59.643Z,4.50
2023-07-25T11:02:35.926Z,3.30
2023-07-25T11:05:13.316Z,3.00
2023-07-25T11:07:46.973Z,3.50
2023-07-25T11:10:27.542Z,4.10
2023-07-25T11:13:01.651Z,4.80
2023-07-25T11:15:40.726Z,4.90
2023-07-25T11:18:15.720Z,4.90
2023-07-25T11:20:44.318Z,4.60
2023-07-25T11:23:12.414Z,4.40
2023-07-25T11:25:40.190Z,3.30
2023-07-25T11:28:08.825Z,4.20
2023-07-25T11:30:45.100Z,2.60
2023-07-25T11:33:13.035Z,2.60
2023-07-25T11:35:40.926Z,2.70
2023-07-25T11:38:09.051Z,3.30
2023-07-25T11:40:41.400Z,3.30
2023-07-25T11:43:14.071Z,2.60
2023-07-25T11:45:45.175Z,3.00
2023-07-25T11:50:44.854Z,2.80
2023-07-25T11:53:12.740Z,1.90
2023-07-25T11:55:40.567Z,4.20
2023-07-25T11:58:08.313Z,3.00
2023-07-25T12:00:41.034Z,4.60
2023-07-25T12:03:22.801Z,2.90
2023-07-25T12:05:59.651Z,3.70
2023-07-25T12:08:46.269Z,2.40
2023-07-25T12:11:16.617Z,3.40
2023-07-25T12:13:53.455Z,3.30
2023-07-25T12:16:38.206Z,3.80
2023-07-25T12:19:11.083Z,4.10
2023-07-25T12:21:42.482Z,2.70
2023-07-25T12:24:13.783Z,5.50
2023-07-25T12:26:48.233Z,2.70
2023-07-25T12:29:22.658Z,3.10
2023-07-25T12:31:50.467Z,3.30
2023-07-25T12:34:21.388Z,4.70
2023-07-25T12:36:50.881Z,3.20
2023-07-25T12:39:19.143Z,4.10
2023-07-25T12:41:47.571Z,4.50
2023-07-25T12:44:15.394Z,4.00
2023-07-25T12:46:43.305Z,3.20
2023-07-25T12:49:11.191Z,5.00
2023-07-25T12:51:38.958Z,3.10
2023-07-25T12:54:06.777Z,2.60
2023-07-25T12:56:34.827Z,2.20
2023-07-25T12:59:02.852Z,3.40
2023-07-25T13:01:30.930Z,3.00
2023-07-25T13:03:59.182Z,3.20
2023-07-25T13:06:26.966Z,2.00
2023-07-25T13:08:54.822Z,2.50
2023-07-25T13:11:22.553Z,2.70
2023-07-25T13:13:50.417Z,3.00
2023-07-25T13:16:18.301Z,3.50
2023-07-25T13:18:46.153Z,4.10
2023-07-25T13:21:13.871Z,3.40
2023-07-25T13:23:41.909Z,2.70
2023-07-25T13:26:09.922Z,4.40
2023-07-25T13:28:37.951Z,2.60
2023-07-25T13:31:05.807Z,3.20
2023-07-25T13:33:33.717Z,2.30
2023-07-25T13:36:01.603Z,2.20
2023-07-25T13:38:29.331Z,1.90
2023-07-25T13:40:57.157Z,3.40
2023-07-25T13:43:24.992Z,3.10
2023-07-25T13:45:53.541Z,2.80
2023-07-25T13:48:24.368Z,1.90
2023-07-25T13:50:54.919Z,3.70
2023-07-25T13:53:23.316Z,2.90
2023-07-25T13:55:52.568Z,3.60
2023-07-25T13:58:23.990Z,3.50
2023-07-25T14:00:52.611Z,2.50
2023-07-25T14:03:20.471Z,2.70
2023-07-25T14:05:48.330Z,2.30
2023-07-25T14:08:16.020Z,3.40
2023-07-25T14:10:43.855Z,3.70
2023-07-25T14:13:11.768Z,3.50
2023-07-25T14:15:39.662Z,2.40
2023-07-25T14:18:07.629Z,3.60
2023-07-25T14:20:36.285Z,3.60
2023-07-25T14:23:04.013Z,3.20
2023-07-25T14:25:32.054Z,2.00
2023-07-25T14:27:59.811Z,1.80
2023-07-25T14:30:27.943Z,2.20
2023-07-25T14:32:55.749Z,3.20
2023-07-25T14:35:23.595Z,2.10
2023-07-25T14:37:56.824Z,2.20
2023-07-25T14:40:26.391Z,1.60
2023-07-25T14:42:54.232Z,2.60
2023-07-25T14:45:22.160Z,1.50
2023-07-25T14:47:50.202Z,1.50
2023-07-25T14:50:18.200Z,3.10
2023-07-25T14:52:45.916Z,2.80
2023-07-25T14:55:14.078Z,1.40
2023-07-25T14:57:42.015Z,2.30
2023-07-25T15:00:11.033Z,2.60
2023-07-25T15:02:38.931Z,2.20
2023-07-25T15:05:07.858Z,2.10
2023-07-25T15:07:36.231Z,2.50
2023-07-25T15:10:04.981Z,2.50
2023-07-25T15:12:33.202Z,2.00
2023-07-25T15:15:01.341Z,2.10
2023-07-25T15:17:29.460Z,2.30
2023-07-25T15:20:01.959Z,1.80
2023-07-25T15:22:30.734Z,2.40
2023-07-25T15:24:58.834Z,1.10
2023-07-25T15:27:28.862Z,1.70
2023-07-25T15:29:57.145Z,1.70
2023-07-25T15:32:25.083Z,1.80
2023-07-25T15:34:52.974Z,1.20
2023-07-25T15:37:20.883Z,1.60
2023-07-25T15:39:48.685Z,1.80
2023-07-25T15:42:16.402Z,1.80
2023-07-25T15:44:44.169Z,1.10
2023-07-25T15:47:11.971Z,1.90
2023-07-25T15:49:39.774Z,2.00
2023-07-25T15:52:08.267Z,1.40
2023-07-25T15:54:36.150Z,1.40
2023-07-25T15:57:04.359Z,1.80
2023-07-25T15:59:32.107Z,2.80
2023-07-25T16:02:00.053Z,2.30
2023-07-25T16:04:27.854Z,2.80
2023-07-25T16:06:55.641Z,2.20
2023-07-25T16:09:23.385Z,1.70
2023-07-25T16:11:51.135Z,2.40
2023-07-25T16:14:18.998Z,3.90
2023-07-25T16:16:46.995Z,1.50
2023-07-25T16:19:16.992Z,1.80
2023-07-25T16:21:44.819Z,1.80
2023-07-25T16:24:12.597Z,2.10
2023-07-25T16:26:40.457Z,2.00
2023-07-25T16:29:08.294Z,2.60
2023-07-25T16:31:36.202Z,2.60
2023-07-25T16:34:04.881Z,1.60
2023-07-25T16:36:32.709Z,2.00
2023-07-25T16:39:00.705Z,3.20
2023-07-25T16:41:28.572Z,2.30
2023-07-25T16:43:56.340Z,3.20
2023-07-25T16:46:24.172Z,1.90
2023-07-25T16:48:51.991Z,1.70
2023-07-25T16:51:19.748Z,2.20
2023-07-25T16:53:47.659Z,5.50
2023-07-25T16:56:15.454Z,3.20
2023-07-25T16:58:43.317Z,3.60
2023-07-25T17:01:11.111Z,3.00
2023-07-25T17:03:39.389Z,2.40
2023-07-25T17:06:07.453Z,2.90
2023-07-25T17:08:35.236Z,4.30
2023-07-25T17:11:05.876Z,2.90
2023-07-25T17:13:36.752Z,4.50
2023-07-25T17:16:07.261Z,3.60
2023-07-25T17:18:35.337Z,2.70
2023-07-25T17:21:03.211Z,2.30
2023-07-25T17:23:30.982Z,6.80
2023-07-25T17:25:58.818Z,4.00
2023-07-25T17:28:27.224Z,2.30
2023-07-25T17:30:55.041Z,3.60
2023-07-25T17:33:23.239Z,2.80
2023-07-25T17:35:51.407Z,3.60
2023-07-25T17:38:19.232Z,3.30
2023-07-25T17:40:48.596Z,2.50
2023-07-25T17:43:16.637Z,3.40
2023-07-25T17:45:44.713Z,2.40
2023-07-25T17:48:14.669Z,3.50
2023-07-25T17:50:42.609Z,3.00
2023-07-25T17:53:10.548Z,2.40
2023-07-25T17:55:40.734Z,3.30
2023-07-25T17:58:11.761Z,2.50
2023-07-25T18:00:40.601Z,3.20
2023-07-25T18:03:08.713Z,3.10
2023-07-25T18:05:37.080Z,2.90
2023-07-25T18:08:05.462Z,3.40
2023-07-25T18:10:33.354Z,2.00
2023-07-25T18:13:01.225Z,3.70
2023-07-25T18:15:30.624Z,2.30
2023-07-25T18:17:58.920Z,2.20
2023-07-25T18:20:26.904Z,3.30
2023-07-25T18:22:54.777Z,2.20
2023-07-25T18:25:22.985Z,1.90
2023-07-25T18:27:50.819Z,2.90
2023-07-25T18:30:18.539Z,2.70
2023-07-25T18:32:46.971Z,2.30
2023-07-25T18:35:15.554Z,2.70
2023-07-25T18:37:46.462Z,1.80
2023-07-25T18:40:14.265Z,1.70
2023-07-25T18:42:42.089Z,2.60
2023-07-25T18:45:10.653Z,3.40
2023-07-25T18:47:38.955Z,2.30
2023-07-25T18:50:07.787Z,3.60
2023-07-25T18:52:35.526Z,2.20
2023-07-25T18:55:03.614Z,1.70
2023-07-25T18:57:31.405Z,2.90
2023-07-25T18:59:59.432Z,3.10
2023-07-25T19:02:27.288Z,3.00
2023-07-25T19:04:55.074Z,2.70
2023-07-25T19:07:22.988Z,2.90
2023-07-25T19:09:50.678Z,2.40
2023-07-25T19:12:21.546Z,2.10
2023-07-25T19:14:49.290Z,3.10
2023-07-25T19:17:17.598Z,2.50
2023-07-25T19:19:45.413Z,1.90
2023-07-25T19:22:13.130Z,3.20
2023-07-25T19:24:40.884Z,5.00
2023-07-25T19:27:08.811Z,2.70
2023-07-25T19:29:36.525Z,3.80
2023-07-25T19:32:04.735Z,3.80
2023-07-25T19:34:36.326Z,2.40
2023-07-25T19:37:04.480Z,4.00
2023-07-25T19:39:34.217Z,2.20
2023-07-25T19:42:02.593Z,2.70
2023-07-25T19:44:30.343Z,3.10
2023-07-25T19:46:58.248Z,2.20
2023-07-25T19:49:25.966Z,2.30
2023-07-25T19:51:53.673Z,2.80
2023-07-25T19:54:21.707Z,2.70
2023-07-25T19:56:49.505Z,4.20
2023-07-25T19:59:17.357Z,2.70
2023-07-25T20:01:45.313Z,3.20
2023-07-25T20:04:13.068Z,4.00
2023-07-25T20:06:40.891Z,2.40
2023-07-25T20:09:08.625Z,3.50
2023-07-25T20:11:36.373Z,3.00
2023-07-25T20:14:04.411Z,2.50
2023-07-25T20:16:32.530Z,3.60
2023-07-25T20:19:00.710Z,3.10
2023-07-25T20:21:28.578Z,3.30
2023-07-25T20:23:56.428Z,4.70
2023-07-25T20:26:24.272Z,3.70
2023-07-25T20:28:54.482Z,3.40
2023-07-25T20:31:22.216Z,5.90
2023-07-25T20:33:50.323Z,4.00
2023-07-25T20:36:18.139Z,3.30
2023-07-25T20:38:47.694Z,3.60
2023-07-25T20:41:15.831Z,4.20
2023-07-25T20:43:43.747Z,3.30
2023-07-25T20:46:11.714Z,3.10
2023-07-25T20:48:39.828Z,4.40
2023-07-25T20:51:07.626Z,4.10
2023-07-25T20:53:36.597Z,3.10
2023-07-25T20:56:07.673Z,2.90
2023-07-25T20:58:35.700Z,3.10
2023-07-25T21:01:03.767Z,3.30
2023-07-25T21:03:31.943Z,3.90
2023-07-25T21:06:04.262Z,4.20
2023-07-25T21:08:32.043Z,5.70
2023-07-25T21:11:00.287Z,4.40
2023-07-25T21:13:28.216Z,4.60
2023-07-25T21:15:56.144Z,5.20
2023-07-25T21:18:23.994Z,3.80
2023-07-25T21:20:51.974Z,6.10
2023-07-25T21:23:23.474Z,4.90
2023-07-25T21:25:52.295Z,4.10
2023-07-25T21:28:20.503Z,5.70
2023-07-25T21:30:48.627Z,4.90
2023-07-25T21:33:16.434Z,5.10
2023-07-25T21:35:44.233Z,5.70
2023-07-25T21:38:13.057Z,4.60
2023-07-25T21:40:40.871Z,4.40
2023-07-25T21:43:08.539Z,5.70
2023-07-25T21:45:36.411Z,3.60
2023-07-25T21:48:04.714Z,5.00
2023-07-25T21:50:32.513Z,4.50
2023-07-25T21:53:00.300Z,5.10
2023-07-25T21:55:28.071Z,5.90
2023-07-25T21:57:55.933Z,6.80
2023-07-25T22:00:23.696Z,5.30
2023-07-25T22:02:51.786Z,4.50
2023-07-25T22:05:19.801Z,5.20
2023-07-25T22:07:49.040Z,4.50
2023-07-25T22:10:16.913Z,4.90
2023-07-25T22:12:47.759Z,4.70
2023-07-25T22:15:15.828Z,5.00
2023-07-25T22:17:43.912Z,4.10
2023-07-25T22:20:12.280Z,3.70
2023-07-25T22:22:41.046Z,5.50
2023-07-25T22:25:09.250Z,5.40
2023-07-25T22:27:37.106Z,3.30
2023-07-25T22:30:06.311Z,4.20
2023-07-25T22:32:34.482Z,4.10
2023-07-25T22:35:02.480Z,4.90
2023-07-25T22:37:30.904Z,6.30
2023-07-25T22:39:58.604Z,5.40
2023-07-25T22:42:26.568Z,4.30
2023-07-25T22:44:54.408Z,5.10
2023-07-25T22:47:22.265Z,4.10
2023-07-25T22:49:53.526Z,5.30
2023-07-25T22:52:23.305Z,3.80
2023-07-25T22:54:51.407Z,4.40
2023-07-25T22:57:19.213Z,6.10
2023-07-25T22:59:46.968Z,4.80
2023-07-25T23:02:14.770Z,4.10
2023-07-25T23:04:42.524Z,4.70
2023-07-25T23:07:10.244Z,4.60
2023-07-25T23:09:38.125Z,2.60
2023-07-25T23:12:06.449Z,3.70
2023-07-25T23:14:35.136Z,5.20
2023-07-25T23:17:03.042Z,4.70
2023-07-25T23:19:31.126Z,4.00
2023-07-25T23:21:58.913Z,4.70
2023-07-25T23:24:26.714Z,4.20
2023-07-25T23:26:54.451Z,4.60
2023-07-25T23:29:22.187Z,3.90
2023-07-25T23:31:50.296Z,5.10
2023-07-25T23:34:18.443Z,4.10
2023-07-25T23:36:46.200Z,4.70
2023-07-25T23:39:13.958Z,5.80
2023-07-25T23:41:41.741Z,4.30
2023-07-25T23:44:10.842Z,3.80
2023-07-25T23:46:38.738Z,6.30
2023-07-25T23:49:06.514Z,4.60
2023-07-25T23:51:34.230Z,5.50
2023-07-25T23:54:02.145Z,3.90
2023-07-25T23:56:29.975Z,5.70
2023-07-25T23:58:57.824Z,4.40
